Time;durP1;ratioP1;P1;durP2;ratioP2;P2;SDS_P1;SDS_P2;PMS_P1;PMS_P2;Temp;Humidity;BMP_temperature;BMP_pressure;BME280_temperature;BME280_humidity;BME280_pressure;Samples;Min_cycle;Max_cycle;Signal;HPM_P1;HPM_P2
2023/11/21 00:01:26;;;;;;;42.50;24.07;;;;;;;6.62;100.00;99761.89;1469160;88;22290;-80
2023/11/21 00:03:55;;;;;;;44.10;22.10;;;;;;;6.68;100.00;99757.87;1456811;88;21576;-78
2023/11/21 00:06:20;;;;;;;34.13;20.37;;;;;;;6.69;100.00;99751.64;1459538;88;21442;-79
2023/11/21 00:08:46;;;;;;;36.97;19.63;;;;;;;6.69;100.00;99751.15;1456614;88;22373;-79
2023/11/21 00:11:13;;;;;;;33.70;19.27;;;;;;;6.72;100.00;99757.44;1469709;88;21442;-79
2023/11/21 00:13:39;;;;;;;43.83;23.23;;;;;;;6.73;100.00;99752.55;1461404;88;22416;-78
2023/11/21 00:16:07;;;;;;;36.43;21.23;;;;;;;6.75;100.00;99749.27;1466809;87;21442;-79
2023/11/21 00:18:33;;;;;;;41.17;22.30;;;;;;;6.75;100.00;99753.22;1413880;91;21674;-79
2023/11/21 00:20:59;;;;;;;53.07;27.00;;;;;;;6.73;100.00;99754.32;1427781;90;22168;-79
2023/11/21 00:23:25;;;;;;;35.60;21.83;;;;;;;6.75;100.00;99749.27;1412121;91;21407;-79
2023/11/21 00:25:52;;;;;;;39.63;20.90;;;;;;;6.77;100.00;99757.04;1434384;90;21464;-79
2023/11/21 00:28:18;;;;;;;39.30;19.03;;;;;;;6.72;100.00;99757.44;1436508;90;22271;-79
2023/11/21 00:30:44;;;;;;;35.40;20.57;;;;;;;6.70;100.00;99757.23;1435432;91;21364;-79
2023/11/21 00:33:10;;;;;;;35.00;18.97;;;;;;;6.67;100.00;99759.65;1429738;90;21524;-79
2023/11/21 00:35:37;;;;;;;37.63;19.67;;;;;;;6.63;100.00;99764.86;1426678;90;22156;-79
2023/11/21 00:38:03;;;;;;;33.80;16.97;;;;;;;6.57;100.00;99769.36;1433974;90;21376;-79
2023/11/21 00:40:29;;;;;;;41.83;20.27;;;;;;;6.53;100.00;99767.95;1427598;90;21412;-79
2023/11/21 00:42:55;;;;;;;37.17;18.93;;;;;;;6.53;100.00;99774.06;1435492;91;22345;-79
2023/11/21 00:45:23;;;;;;;38.30;21.67;;;;;;;6.55;100.00;99776.54;1437186;90;21317;-78
2023/11/21 00:47:49;;;;;;;31.07;18.60;;;;;;;6.58;100.00;99773.63;1429392;90;22257;-79
2023/11/21 00:50:16;;;;;;;31.97;18.13;;;;;;;6.58;100.00;99775.44;1435723;90;21405;-79
2023/11/21 00:52:42;;;;;;;31.83;18.10;;;;;;;6.54;100.00;99774.89;1446436;89;21385;-78
2023/11/21 00:55:09;;;;;;;29.73;17.33;;;;;;;6.50;100.00;99781.38;1442113;89;21427;-79
2023/11/21 00:57:37;;;;;;;30.73;17.43;;;;;;;6.49;100.00;99779.72;1445894;89;21419;-79
2023/11/21 01:00:13;;;;;;;30.80;17.20;;;;;;;6.46;100.00;99778.69;1452567;89;21463;-79
2023/11/21 01:02:35;;;;;;;33.23;17.57;;;;;;;6.41;100.00;99775.14;1440611;89;22262;-77
2023/11/21 01:05:02;;;;;;;30.63;17.43;;;;;;;6.32;100.00;99776.79;1439123;89;22432;-78
2023/11/21 01:07:29;;;;;;;27.23;15.80;;;;;;;6.29;100.00;99778.38;1459238;89;21428;-77
2023/11/21 01:09:56;;;;;;;27.70;17.83;;;;;;;6.24;100.00;99778.44;1426991;89;21465;-78
2023/11/21 01:12:24;;;;;;;26.50;16.57;;;;;;;6.18;100.00;99774.55;1426571;90;22354;-76
2023/11/21 01:14:51;;;;;;;24.37;17.67;;;;;;;6.11;100.00;99776.07;1430691;89;21405;-78
2023/11/21 01:17:18;;;;;;;25.47;15.90;;;;;;;5.97;100.00;99768.08;1434978;90;21369;-78
2023/11/21 01:19:44;;;;;;;29.00;16.43;;;;;;;5.85;100.00;99764.70;1437901;90;21442;-78
2023/11/21 01:22:11;;;;;;;31.83;18.87;;;;;;;5.77;100.00;99761.90;1436700;89;21682;-78
2023/11/21 01:24:38;;;;;;;26.47;16.20;;;;;;;5.70;100.00;99763.87;1473990;88;21412;-79
2023/11/21 01:27:04;;;;;;;25.80;17.00;;;;;;;5.63;100.00;99764.40;1481958;88;21345;-80
2023/11/21 01:29:30;;;;;;;26.27;16.93;;;;;;;5.58;100.00;99769.23;1478366;87;21470;-78
2023/11/21 01:31:57;;;;;;;26.77;15.43;;;;;;;5.54;100.00;99772.25;1470016;88;21367;-78
2023/11/21 01:34:23;;;;;;;22.33;14.57;;;;;;;5.50;100.00;99774.80;1465111;87;21449;-79
2023/11/21 01:36:49;;;;;;;25.00;14.10;;;;;;;5.48;100.00;99769.66;1480559;88;21495;-78
2023/11/21 01:39:16;;;;;;;22.53;15.47;;;;;;;5.46;100.00;99766.81;1467149;88;21524;-78
2023/11/21 01:41:45;;;;;;;23.20;14.73;;;;;;;5.39;100.00;99777.84;1455819;88;21455;-78
2023/11/21 01:44:13;;;;;;;30.33;15.77;;;;;;;5.29;100.00;99773.00;1463532;88;22399;-78
2023/11/21 01:46:39;;;;;;;29.50;16.40;;;;;;;5.23;100.00;99769.59;1459290;88;21434;-78
2023/11/21 01:49:06;;;;;;;27.83;15.90;;;;;;;5.18;100.00;99767.86;1468260;87;22343;-78
2023/11/21 01:51:32;;;;;;;26.90;14.47;;;;;;;5.15;100.00;99769.40;1459648;88;21361;-78
2023/11/21 01:53:59;;;;;;;23.80;14.53;;;;;;;5.13;100.00;99770.03;1461469;88;22270;-78
2023/11/21 01:56:26;;;;;;;20.53;13.50;;;;;;;5.09;100.00;99764.22;1453979;89;21400;-78
2023/11/21 01:58:52;;;;;;;18.43;12.27;;;;;;;5.07;100.00;99758.74;1465418;87;21471;-77
2023/11/21 02:01:19;;;;;;;19.80;12.93;;;;;;;5.06;100.00;99761.00;1465627;88;21315;-78
2023/11/21 02:03:45;;;;;;;16.60;12.53;;;;;;;5.06;100.00;99767.55;1466966;88;21530;-78
2023/11/21 02:06:11;;;;;;;23.23;14.57;;;;;;;5.06;100.00;99762.30;1478139;87;21392;-76
2023/11/21 02:08:38;;;;;;;23.70;15.33;;;;;;;5.05;100.00;99758.86;1465817;88;22092;-77
2023/11/21 02:11:05;;;;;;;23.43;13.60;;;;;;;5.08;100.00;99762.53;1464610;87;21501;-80
2023/11/21 02:13:33;;;;;;;22.17;14.67;;;;;;;5.10;100.00;99758.48;1464601;88;21478;-79
2023/11/21 02:15:59;;;;;;;21.07;13.20;;;;;;;5.09;100.00;99752.87;1479846;88;21551;-79
2023/11/21 02:18:28;;;;;;;17.53;13.33;;;;;;;5.08;100.00;99754.66;1466663;88;22136;-79
2023/11/21 02:20:54;;;;;;;23.37;13.40;;;;;;;5.00;100.00;99759.72;1479263;88;21434;-79
2023/11/21 02:23:23;;;;;;;21.30;12.77;;;;;;;4.97;100.00;99758.18;1466162;88;22269;-79
2023/11/21 02:25:49;;;;;;;18.23;12.07;;;;;;;4.97;100.00;99755.55;1481497;88;22240;-79
2023/11/21 02:28:18;;;;;;;18.90;11.10;;;;;;;4.97;100.00;99752.94;1473760;88;21492;-79
2023/11/21 02:30:43;;;;;;;20.63;12.53;;;;;;;4.93;100.00;99755.47;1451991;88;21404;-78
2023/11/21 02:33:09;;;;;;;20.33;13.17;;;;;;;4.91;100.00;99749.52;1470759;88;21381;-76
2023/11/21 02:35:36;;;;;;;24.10;13.63;;;;;;;4.85;100.00;99747.41;1471285;87;21470;-79
2023/11/21 02:38:02;;;;;;;18.53;13.73;;;;;;;4.78;100.00;99743.64;1464130;88;21493;-79
2023/11/21 02:40:29;;;;;;;20.10;12.20;;;;;;;4.72;100.00;99750.71;1459819;88;21522;-80
2023/11/21 02:42:58;;;;;;;22.03;13.77;;;;;;;4.68;100.00;99750.59;1463206;88;22514;-79
2023/11/21 02:45:24;;;;;;;17.40;12.47;;;;;;;4.67;100.00;99759.42;1479234;87;21406;-79
2023/11/21 02:47:50;;;;;;;16.40;11.10;;;;;;;4.67;100.00;99758.94;1461089;87;22358;-78
2023/11/21 02:50:20;;;;;;;21.07;11.33;;;;;;;4.67;100.00;99757.63;1464980;88;21493;-79
2023/11/21 02:52:44;;;;;;;23.37;16.17;;;;;;;4.68;100.00;99752.73;1465099;88;21655;-80
2023/11/21 02:55:10;;;;;;;19.83;13.33;;;;;;;4.64;100.00;99751.33;1471975;88;21396;-79
2023/11/21 02:57:37;;;;;;;25.63;12.63;;;;;;;4.63;100.00;99758.00;1474213;87;22703;-79
2023/11/21 03:00:07;;;;;;;17.50;11.47;;;;;;;4.59;100.00;99761.84;1476495;88;22012;-81
2023/11/21 03:02:39;;;;;;;20.77;11.93;;;;;;;4.53;100.00;99765.30;1470235;88;21456;-81
2023/11/21 03:05:04;;;;;;;18.23;11.77;;;;;;;4.45;100.00;99762.47;1466254;88;21382;-79
2023/11/21 03:07:31;;;;;;;17.33;11.23;;;;;;;4.37;100.00;99757.50;1463549;89;21405;-78
2023/11/21 03:09:57;;;;;;;21.07;11.93;;;;;;;4.30;100.00;99757.17;1466218;88;22485;-78
2023/11/21 03:12:23;;;;;;;16.97;10.97;;;;;;;4.25;100.00;99764.08;1459181;88;21441;-77
2023/11/21 03:14:50;;;;;;;25.03;14.73;;;;;;;4.19;100.00;99765.89;1458037;87;21486;-77
2023/11/21 03:17:16;;;;;;;19.43;12.17;;;;;;;4.15;100.00;99768.89;1455271;88;22409;-78
2023/11/21 03:19:42;;;;;;;15.27;10.80;;;;;;;4.09;100.00;99762.36;1456630;88;21404;-78
2023/11/21 03:22:09;;;;;;;19.80;11.43;;;;;;;4.04;100.00;99763.20;1459698;88;21471;-78
2023/11/21 03:24:36;;;;;;;20.93;11.13;;;;;;;3.97;100.00;99765.48;1461696;88;22418;-77
2023/11/21 03:27:02;;;;;;;21.47;12.40;;;;;;;3.91;100.00;99765.93;1463898;88;22049;-77
2023/11/21 03:29:28;;;;;;;24.77;14.87;;;;;;;3.79;100.00;99773.45;1464515;87;21546;-77
2023/11/21 03:31:54;;;;;;;13.93;10.47;;;;;;;3.67;100.00;99768.70;1472942;88;21412;-79
2023/11/21 03:34:27;;;;;;;16.43;10.43;;;;;;;3.58;100.00;99771.55;1467295;88;21465;-79
2023/11/21 03:36:53;;;;;;;11.27;9.07;;;;;;;3.46;100.00;99769.89;1455294;88;21361;-79
2023/11/21 03:39:22;;;;;;;20.03;11.57;;;;;;;3.31;100.00;99767.13;1448623;88;21404;-79
2023/11/21 03:41:48;;;;;;;104.13;49.10;;;;;;;3.23;100.00;99768.21;1480799;87;21472;-79
2023/11/21 03:44:15;;;;;;;127.67;50.43;;;;;;;3.13;100.00;99768.89;1472502;88;21390;-79
2023/11/21 03:46:41;;;;;;;108.20;42.87;;;;;;;3.09;100.00;99772.69;1473516;88;21534;-78
2023/11/21 03:49:07;;;;;;;81.40;39.10;;;;;;;3.06;100.00;99772.92;1459466;88;21398;-79
2023/11/21 03:51:34;;;;;;;57.50;27.90;;;;;;;3.00;100.00;99774.70;1456381;88;21428;-79
2023/11/21 03:54:00;;;;;;;47.27;21.83;;;;;;;2.93;100.00;99763.02;1448091;88;21512;-79
2023/11/21 03:56:26;;;;;;;23.57;14.37;;;;;;;2.77;100.00;99767.27;1472117;87;21448;-79
2023/11/21 03:58:52;;;;;;;32.83;18.67;;;;;;;2.77;100.00;99767.27;1478100;87;21405;-79
2023/11/21 04:01:24;;;;;;;19.97;10.77;;;;;;;2.74;100.00;99762.75;1478454;88;22136;-79
2023/11/21 04:03:51;;;;;;;17.20;12.30;;;;;;;2.66;100.00;99768.05;1475272;87;23576;-80
2023/11/21 04:06:18;;;;;;;19.20;13.57;;;;;;;2.61;100.00;99776.70;1477698;87;21708;-79
2023/11/21 04:08:47;;;;;;;26.47;14.30;;;;;;;2.57;100.00;99770.05;1475822;88;21471;-79
2023/11/21 04:11:13;;;;;;;28.43;15.70;;;;;;;2.58;100.00;99780.84;1483084;87;21486;-77
2023/11/21 04:13:42;;;;;;;26.70;11.80;;;;;;;2.60;100.00;99776.83;1478458;87;21516;-79
2023/11/21 04:16:10;;;;;;;27.87;13.43;;;;;;;2.60;100.00;99782.88;1474135;87;23239;-78
2023/11/21 04:18:37;;;;;;;24.67;14.17;;;;;;;2.53;100.00;99774.28;1479820;87;21573;-79
2023/11/21 04:21:06;;;;;;;25.07;15.60;;;;;;;2.53;100.00;99774.28;1471277;87;21693;-79
2023/11/21 04:23:32;;;;;;;44.87;26.00;;;;;;;2.46;100.00;99779.96;1473725;88;22474;-79
2023/11/21 04:25:58;;;;;;;45.50;27.67;;;;;;;2.44;100.00;99778.41;1473495;88;22192;-77
2023/11/21 04:28:25;;;;;;;31.17;19.60;;;;;;;2.44;100.00;99769.27;1477150;88;22367;-79
2023/11/21 04:30:51;;;;;;;37.40;21.97;;;;;;;2.46;100.00;99760.84;1465355;87;22344;-80
2023/11/21 04:33:17;;;;;;;44.73;24.13;;;;;;;2.50;100.00;99763.59;1477668;88;22136;-79
2023/11/21 04:35:43;;;;;;;82.63;35.40;;;;;;;2.53;100.00;99756.83;1468244;87;22143;-78
2023/11/21 04:38:10;;;;;;;67.83;29.17;;;;;;;2.54;100.00;99768.96;1474797;88;22278;-79
2023/11/21 04:40:36;;;;;;;75.70;31.77;;;;;;;2.56;100.00;99769.69;1475103;88;22170;-79
2023/11/21 04:43:03;;;;;;;77.73;31.93;;;;;;;2.56;100.00;99769.69;1469814;87;21434;-79
2023/11/21 04:45:30;;;;;;;56.17;27.97;;;;;;;2.58;100.00;99769.56;1479648;87;23315;-79
2023/11/21 04:47:56;;;;;;;47.63;27.13;;;;;;;2.61;100.00;99768.86;1474464;87;21544;-78
2023/11/21 04:50:22;;;;;;;50.80;27.03;;;;;;;2.67;100.00;99773.63;1469117;88;21419;-80
2023/11/21 04:52:49;;;;;;;116.73;45.73;;;;;;;2.67;100.00;99773.63;1480108;87;21434;-79
2023/11/21 04:55:15;;;;;;;70.40;32.10;;;;;;;2.74;100.00;99762.75;1464517;88;23076;-77
2023/11/21 04:57:41;;;;;;;53.43;26.23;;;;;;;2.81;100.00;99766.56;1477153;87;22132;-79
2023/11/21 05:00:10;;;;;;;47.03;23.80;;;;;;;2.86;100.00;99774.90;1465332;88;22852;-79
2023/11/21 05:02:38;;;;;;;41.30;20.77;;;;;;;2.90;100.00;99780.24;1464202;88;21634;-79
2023/11/21 05:05:05;;;;;;;33.27;21.90;;;;;;;2.88;100.00;99768.61;1476187;88;21500;-78
2023/11/21 05:07:35;;;;;;;35.57;20.90;;;;;;;2.96;100.00;99779.78;1467560;88;21605;-78
2023/11/21 05:10:03;;;;;;;37.63;23.63;;;;;;;2.98;100.00;99779.20;1478071;87;21449;-80
2023/11/21 05:12:37;;;;;;;33.53;20.93;;;;;;;2.97;100.00;99776.23;1480336;87;21744;-81
2023/11/21 05:15:11;;;;;;;30.43;20.70;;;;;;;2.95;100.00;99785.97;1476934;88;21508;-79
2023/11/21 05:17:49;;;;;;;29.83;21.00;;;;;;;2.93;100.00;99782.63;1492409;87;21611;-79
2023/11/21 05:20:09;;;;;;;28.83;19.87;;;;;;;2.91;100.00;99803.77;1472261;87;21506;-81
2023/11/21 05:22:36;;;;;;;31.57;19.93;;;;;;;2.90;100.00;99803.77;1481498;87;21508;-80
2023/11/21 05:25:04;;;;;;;27.73;19.63;;;;;;;2.91;100.00;99807.59;1473997;87;21368;-81
2023/11/21 05:27:30;;;;;;;26.00;16.87;;;;;;;2.93;100.00;99798.31;1475566;87;21577;-81
2023/11/21 05:29:57;;;;;;;32.70;19.57;;;;;;;2.94;100.00;99800.83;1477817;87;21493;-81
2023/11/21 05:32:25;;;;;;;30.33;19.87;;;;;;;2.96;100.00;99804.61;1474228;87;21626;-82
2023/11/21 05:34:52;;;;;;;30.67;19.90;;;;;;;2.87;100.00;99793.54;1478371;88;21441;-76
2023/11/21 05:37:19;;;;;;;27.40;17.63;;;;;;;2.87;100.00;99793.54;1484879;87;22453;-80
2023/11/21 05:39:45;;;;;;;26.83;17.83;;;;;;;2.89;100.00;99802.94;1474270;88;21397;-81
2023/11/21 05:42:11;;;;;;;25.90;16.97;;;;;;;2.83;100.00;99805.19;1475495;87;21419;-82
2023/11/21 05:44:43;;;;;;;35.23;20.20;;;;;;;2.68;100.00;99806.67;1472826;87;22594;-80
2023/11/21 05:47:10;;;;;;;37.67;22.07;;;;;;;2.68;100.00;99802.98;1468645;88;21464;-81
2023/11/21 05:49:36;;;;;;;38.53;22.63;;;;;;;2.65;100.00;99802.98;1480478;88;21649;-81
2023/11/21 05:52:03;;;;;;;41.80;24.33;;;;;;;2.70;100.00;99813.94;1485549;88;22365;-80
2023/11/21 05:54:29;;;;;;;38.00;23.33;;;;;;;2.70;100.00;99813.94;1465092;88;21641;-81
2023/11/21 05:56:55;;;;;;;37.00;23.80;;;;;;;2.80;100.00;99813.25;1473808;88;22136;-81
2023/11/21 05:59:22;;;;;;;57.60;37.07;;;;;;;2.80;100.00;99813.25;1488496;87;21553;-81
2023/11/21 06:01:48;;;;;;;74.13;39.00;;;;;;;2.81;100.00;99817.52;1468927;87;21435;-78
2023/11/21 06:04:14;;;;;;;55.67;33.17;;;;;;;2.77;100.00;99818.23;1474455;87;21531;-81
2023/11/21 06:06:41;;;;;;;61.30;37.47;;;;;;;2.70;100.00;99817.13;1482213;87;21420;-81
2023/11/21 06:09:09;;;;;;;54.83;35.33;;;;;;;2.68;100.00;99815.81;1468132;88;21582;-82
2023/11/21 06:11:35;;;;;;;57.57;41.30;;;;;;;2.65;100.00;99798.23;1475448;87;22609;-79
2023/11/21 06:14:02;;;;;;;52.30;36.57;;;;;;;2.69;100.00;99805.71;1480961;87;21478;-80
2023/11/21 06:16:29;;;;;;;63.77;42.60;;;;;;;2.80;100.00;99815.39;1480447;88;22298;-80
2023/11/21 06:18:55;;;;;;;49.90;31.63;;;;;;;2.88;100.00;99825.29;1501076;87;21671;-80
2023/11/21 06:21:21;;;;;;;48.13;27.97;;;;;;;2.96;100.00;99829.93;1490870;87;21397;-77
2023/11/21 06:23:47;;;;;;;48.43;23.83;;;;;;;3.02;100.00;99837.31;1483535;87;21427;-79
2023/11/21 06:26:14;;;;;;;64.07;26.47;;;;;;;3.04;100.00;99832.33;1479297;87;21625;-79
2023/11/21 06:28:41;;;;;;;79.83;26.20;;;;;;;3.05;100.00;99841.00;1475280;87;21492;-79
2023/11/21 06:31:07;;;;;;;58.60;29.67;;;;;;;3.03;100.00;99843.75;1485659;88;22365;-78
2023/11/21 06:33:33;;;;;;;50.03;29.77;;;;;;;3.03;100.00;99843.75;1486655;87;21596;-78
2023/11/21 06:36:02;;;;;;;48.50;27.87;;;;;;;3.09;100.00;99849.83;1495770;87;21549;-78
2023/11/21 06:38:29;;;;;;;43.73;26.20;;;;;;;3.16;100.00;99847.13;1496747;87;21471;-78
2023/11/21 06:40:58;;;;;;;46.00;26.73;;;;;;;3.22;100.00;99851.52;1479848;87;22829;-79
2023/11/21 06:43:24;;;;;;;40.23;27.07;;;;;;;3.29;100.00;99850.95;1486338;87;21463;-79
2023/11/21 06:45:51;;;;;;;42.60;25.80;;;;;;;3.35;100.00;99851.80;1487899;88;22425;-81
2023/11/21 06:48:17;;;;;;;44.97;26.50;;;;;;;3.42;100.00;99856.09;1481371;87;21404;-81
2023/11/21 06:50:43;;;;;;;52.90;25.00;;;;;;;3.47;100.00;99853.13;1478420;88;21419;-79
2023/11/21 06:53:10;;;;;;;67.87;27.40;;;;;;;3.51;100.00;99859.34;1476526;88;21448;-83
2023/11/21 06:55:36;;;;;;;39.30;25.50;;;;;;;3.55;100.00;99862.06;1476332;88;22328;-79
2023/11/21 06:58:02;;;;;;;38.10;24.33;;;;;;;3.60;100.00;99860.42;1475668;87;22045;-79
2023/11/21 07:00:28;;;;;;;45.77;24.87;;;;;;;3.65;100.00;99865.28;1485237;87;21573;-80
2023/11/21 07:02:55;;;;;;;42.20;27.30;;;;;;;3.70;100.00;99874.94;1484375;87;22284;-79
2023/11/21 07:05:22;;;;;;;41.67;27.27;;;;;;;3.78;100.00;99881.73;1486748;88;21419;-79
2023/11/21 07:07:49;;;;;;;40.00;26.73;;;;;;;3.86;100.00;99883.29;1477600;88;21614;-79
2023/11/21 07:10:16;;;;;;;66.30;34.07;;;;;;;3.94;100.00;99879.61;1489246;87;21499;-78
2023/11/21 07:12:43;;;;;;;81.47;37.80;;;;;;;4.03;100.00;99878.89;1489168;88;21485;-79
2023/11/21 07:15:09;;;;;;;94.17;45.83;;;;;;;4.07;100.00;99886.03;1483681;88;21530;-79
2023/11/21 07:17:37;;;;;;;121.77;46.90;;;;;;;4.11;100.00;99882.69;1480708;88;21553;-78
2023/11/21 07:20:05;;;;;;;76.43;35.20;;;;;;;4.16;100.00;99877.93;1484331;87;22336;-79
2023/11/21 07:22:32;;;;;;;64.70;35.63;;;;;;;4.18;100.00;99874.72;1489568;87;21595;-80
2023/11/21 07:24:58;;;;;;;49.17;27.57;;;;;;;4.21;100.00;99875.79;1484604;87;22357;-79
2023/11/21 07:27:24;;;;;;;18.30;14.50;;;;;;;4.17;100.00;99876.97;1485392;87;21952;-77
2023/11/21 07:29:52;;;;;;;28.73;19.30;;;;;;;4.14;100.00;99871.97;1484580;87;21544;-79
2023/11/21 07:32:20;;;;;;;23.40;17.23;;;;;;;4.14;100.00;99872.80;1484367;87;22556;-79
2023/11/21 07:34:47;;;;;;;24.97;13.73;;;;;;;4.19;100.00;99882.44;1488043;88;21528;-79
2023/11/21 07:37:13;;;;;;;29.27;14.80;;;;;;;4.17;100.00;99886.13;1482770;87;21588;-77
2023/11/21 07:39:41;;;;;;;34.97;14.70;;;;;;;4.16;100.00;99873.52;1485294;88;22335;-79
2023/11/21 07:42:07;;;;;;;32.30;13.37;;;;;;;4.19;100.00;99884.23;1483173;88;21507;-78
2023/11/21 07:44:33;;;;;;;26.67;16.80;;;;;;;4.21;100.00;99879.72;1483072;87;21569;-77
2023/11/21 07:47:00;;;;;;;21.17;16.00;;;;;;;4.25;100.00;99879.83;1488847;88;22432;-79
2023/11/21 07:49:26;;;;;;;25.63;18.30;;;;;;;4.34;100.00;99889.57;1483255;87;21543;-77
2023/11/21 07:51:53;;;;;;;24.53;16.20;;;;;;;4.45;100.00;99896.11;1478261;87;21618;-79
2023/11/21 07:54:19;;;;;;;23.90;14.93;;;;;;;4.58;100.00;99892.55;1479720;87;21500;-79
2023/11/21 07:56:45;;;;;;;22.53;15.47;;;;;;;4.68;100.00;99896.08;1486743;87;21521;-79
2023/11/21 07:59:12;;;;;;;19.27;15.23;;;;;;;4.77;100.00;99894.02;1486596;87;21639;-77
2023/11/21 08:01:40;;;;;;;20.00;14.40;;;;;;;4.87;100.00;99902.00;1481359;87;21456;-77
2023/11/21 08:04:06;;;;;;;19.07;13.97;;;;;;;4.91;100.00;99896.36;1485691;87;21440;-78
2023/11/21 08:06:33;;;;;;;23.10;16.03;;;;;;;4.96;100.00;99896.83;1482750;87;22454;-78
2023/11/21 08:08:59;;;;;;;34.50;17.43;;;;;;;5.02;100.00;99903.37;1481930;88;21499;-78
2023/11/21 08:11:29;;;;;;;35.23;15.33;;;;;;;5.05;100.00;99915.41;1481057;87;21477;-78
2023/11/21 08:13:54;;;;;;;25.83;17.60;;;;;;;5.10;100.00;99904.06;1487845;87;21692;-79
2023/11/21 08:16:21;;;;;;;154.30;77.83;;;;;;;5.16;100.00;99907.50;1483067;87;21537;-78
2023/11/21 08:18:47;;;;;;;109.27;55.10;;;;;;;5.23;100.00;99908.64;1478535;88;22298;-79
2023/11/21 08:21:13;;;;;;;42.97;24.07;;;;;;;5.26;100.00;99895.75;1483745;88;21463;-75
2023/11/21 08:23:39;;;;;;;35.27;21.60;;;;;;;5.28;100.00;99894.67;1479512;88;21611;-77
2023/11/21 08:26:06;;;;;;;38.97;20.53;;;;;;;5.33;100.00;99895.62;1476370;88;21374;-78
2023/11/21 08:28:32;;;;;;;30.47;18.63;;;;;;;5.33;100.00;99896.45;1481783;88;21441;-77
2023/11/21 08:30:58;;;;;;;32.30;20.03;;;;;;;5.39;100.00;99898.56;1475345;88;21433;-78
2023/11/21 08:33:24;;;;;;;27.33;17.03;;;;;;;5.49;100.00;99901.72;1484160;88;22571;-77
2023/11/21 08:35:50;;;;;;;24.83;16.30;;;;;;;5.56;100.00;99900.27;1489922;87;21485;-78
2023/11/21 08:38:16;;;;;;;24.93;17.93;;;;;;;5.59;100.00;99900.84;1487413;87;21492;-77
2023/11/21 08:40:44;;;;;;;24.00;16.47;;;;;;;5.66;100.00;99900.66;1481246;87;21515;-78
2023/11/21 08:43:12;;;;;;;27.47;17.47;;;;;;;5.72;100.00;99903.25;1483135;87;21367;-78
2023/11/21 08:45:38;;;;;;;33.30;17.83;;;;;;;5.77;100.00;99912.89;1486304;87;21418;-76
2023/11/21 08:48:05;;;;;;;28.77;18.70;;;;;;;5.84;100.00;99917.99;1484821;87;21492;-78
2023/11/21 08:50:31;;;;;;;34.90;20.97;;;;;;;5.89;100.00;99918.89;1485617;87;21544;-77
2023/11/21 08:52:57;;;;;;;37.73;23.77;;;;;;;5.91;100.00;99916.16;1489182;87;21449;-78
2023/11/21 08:55:24;;;;;;;38.20;23.33;;;;;;;5.84;100.00;99918.45;1485180;87;22512;-77
2023/11/21 08:57:50;;;;;;;41.30;24.33;;;;;;;5.81;100.00;99924.82;1487384;87;21418;-77
2023/11/21 09:00:18;;;;;;;37.67;23.30;;;;;;;5.84;100.00;99928.50;1482817;88;21470;-77
2023/11/21 09:02:45;;;;;;;29.33;20.00;;;;;;;5.87;100.00;99922.98;1480343;88;21403;-78
2023/11/21 09:05:13;;;;;;;30.47;19.87;;;;;;;5.93;100.00;99919.04;1486058;87;21491;-77
2023/11/21 09:07:41;;;;;;;26.03;18.77;;;;;;;5.99;100.00;99925.08;1405138;88;21537;-77
2023/11/21 09:10:09;;;;;;;24.77;18.40;;;;;;;6.01;100.00;99920.54;1405040;87;21398;-79
2023/11/21 09:12:39;;;;;;;30.60;19.10;;;;;;;6.07;100.00;99916.53;1408512;87;21567;-78
2023/11/21 09:15:06;;;;;;;27.57;18.97;;;;;;;6.13;100.00;99905.98;1394750;87;21479;-78
2023/11/21 09:17:39;;;;;;;25.63;18.97;;;;;;;6.13;100.00;99895.01;1396426;88;21332;-77
2023/11/21 09:20:05;;;;;;;33.70;20.40;;;;;;;6.16;100.00;99896.06;1394747;87;22219;-78
2023/11/21 09:22:31;;;;;;;27.40;17.93;;;;;;;6.20;100.00;99890.05;1395039;87;21376;-76
2023/11/21 09:24:58;;;;;;;22.80;15.97;;;;;;;6.22;100.00;99888.95;1398139;88;21608;-76
2023/11/21 09:27:25;;;;;;;24.47;16.40;;;;;;;6.28;100.00;99890.22;1398432;88;21346;-78
2023/11/21 09:29:52;;;;;;;23.20;15.83;;;;;;;6.34;100.00;99892.31;1390595;89;21344;-78
2023/11/21 09:32:19;;;;;;;25.50;18.40;;;;;;;6.38;100.00;99891.55;1403371;88;21376;-79
2023/11/21 09:34:45;;;;;;;25.07;16.90;;;;;;;6.38;100.00;99895.50;1398592;88;21523;-78
2023/11/21 09:37:11;;;;;;;31.30;18.40;;;;;;;6.39;100.00;99893.20;1408584;87;21346;-78
2023/11/21 09:39:39;;;;;;;27.40;20.17;;;;;;;6.44;100.00;99889.70;1459882;87;21456;-78
2023/11/21 09:42:22;;;;;;;31.07;21.37;;;;;;;6.49;100.00;99888.33;1472742;88;21629;-79
2023/11/21 09:44:55;;;;;;;34.13;24.33;;;;;;;6.53;100.00;99884.48;1475518;87;22705;-78
2023/11/21 09:47:22;;;;;;;31.87;23.03;;;;;;;6.58;100.00;99880.61;1472426;87;21486;-78
2023/11/21 09:49:52;;;;;;;28.60;19.87;;;;;;;6.61;100.00;99894.31;1469692;87;21522;-78
2023/11/21 09:52:25;;;;;;;27.90;21.10;;;;;;;6.60;100.00;99895.29;1473938;87;21441;-78
2023/11/21 09:54:53;;;;;;;34.40;22.47;;;;;;;6.61;100.00;99896.94;1481449;87;21493;-79
2023/11/21 09:57:24;;;;;;;33.50;22.20;;;;;;;6.64;100.00;99901.92;1475583;87;21468;-78
2023/11/21 09:59:59;;;;;;;;;;;;;;;6.70;100.00;99909.76;1473585;88;22579;-78
2023/11/21 10:02:34;;;;;;;38.07;23.97;;;;;;;6.76;100.00;99907.44;1474261;88;20304;-79
2023/11/21 10:05:00;;;;;;;40.23;24.43;;;;;;;6.78;100.00;99903.34;1471913;87;21626;-80
2023/11/21 10:07:28;;;;;;;42.73;24.03;;;;;;;6.76;100.00;99904.81;1472139;87;22381;-78
2023/11/21 10:09:56;;;;;;;38.70;26.67;;;;;;;6.70;100.00;99896.16;1471042;87;21589;-78
2023/11/21 10:12:25;;;;;;;44.50;25.57;;;;;;;6.67;100.00;99896.39;1478393;87;22431;-79
2023/11/21 10:14:55;;;;;;;41.20;26.03;;;;;;;6.62;100.00;99893.36;1496386;87;21500;-78
2023/11/21 10:17:29;;;;;;;37.48;26.48;;;;;;;6.56;100.00;99892.59;1483699;88;21477;-78
2023/11/21 10:19:55;;;;;;;38.27;24.80;;;;;;;6.52;100.00;99893.81;1495826;87;21589;-77
2023/11/21 10:22:23;;;;;;;35.57;24.57;;;;;;;6.51;100.00;99892.16;1496139;87;21381;-79
2023/11/21 10:24:49;;;;;;;33.70;24.27;;;;;;;6.39;100.00;99886.17;1488037;87;21625;-78
2023/11/21 10:27:15;;;;;;;41.37;26.00;;;;;;;6.28;100.00;99888.42;1486747;87;21456;-77
2023/11/21 10:29:42;;;;;;;38.03;26.40;;;;;;;6.33;100.00;99891.48;1485950;87;22433;-77
2023/11/21 10:32:08;;;;;;;40.57;28.43;;;;;;;6.36;100.00;99889.08;1484422;87;21470;-78
2023/11/21 10:34:34;;;;;;;40.33;27.07;;;;;;;6.39;100.00;99889.27;1483569;87;21478;-78
2023/11/21 10:37:12;;;;;;;39.43;25.20;;;;;;;6.45;100.00;99898.78;1484558;87;22217;-78
2023/11/21 10:39:39;;;;;;;36.63;25.57;;;;;;;6.49;100.00;99890.14;1493046;88;21455;-78
2023/11/21 10:42:10;;;;;;;45.67;25.47;;;;;;;6.43;100.00;99894.63;1481400;87;22373;-81
2023/11/21 10:44:36;;;;;;;51.05;30.40;;;;;;;6.48;100.00;99895.06;1485706;87;21614;-81
2023/11/21 10:47:03;;;;;;;35.60;26.27;;;;;;;6.49;100.00;99894.91;1470865;88;21485;-81
2023/11/21 10:49:29;;;;;;;38.93;28.10;;;;;;;6.53;100.00;99894.15;1481578;87;21427;-81
2023/11/21 10:51:56;;;;;;;43.90;28.43;;;;;;;6.51;100.00;99889.53;1487892;87;22445;-80
2023/11/21 10:54:27;;;;;;;42.20;29.03;;;;;;;6.56;100.00;99886.02;1489289;87;21455;-81
2023/11/21 10:57:00;;;;;;;47.33;30.13;;;;;;;6.64;100.00;99886.64;1481817;88;21455;-81
2023/11/21 10:59:30;;;;;;;69.33;41.63;;;;;;;6.69;100.00;99883.12;1486619;87;21426;-81
2023/11/21 11:02:00;;;;;;;51.02;30.23;;;;;;;6.73;100.00;99887.99;1486486;88;21441;-81
2023/11/21 11:04:28;;;;;;;38.70;28.57;;;;;;;6.80;100.00;99894.02;1484179;88;22410;-81
2023/11/21 11:07:00;;;;;;;49.67;29.47;;;;;;;6.85;100.00;99894.41;1490384;87;21626;-80
2023/11/21 11:09:26;;;;;;;55.10;33.53;;;;;;;6.93;100.00;99889.30;1481238;88;22365;-80
2023/11/21 11:11:54;;;;;;;54.57;34.90;;;;;;;6.99;100.00;99886.13;1489665;87;21632;-79
2023/11/21 11:14:24;;;;;;;49.67;31.30;;;;;;;7.06;100.00;99891.69;1481354;87;21530;-79
2023/11/21 11:16:49;;;;;;;49.00;29.97;;;;;;;7.02;100.00;99888.51;1488595;87;21529;-79